Time;durP1;ratioP1;P1;durP2;ratioP2;P2;SDS_P1;SDS_P2;PMS_P1;PMS_P2;Temp;Humidity;BMP_temperature;BMP_pressure;BME280_temperature;BME280_humidity;BME280_pressure;Samples;Min_cycle;Max_cycle;Signal;HPM_P1;HPM_P2
2023/01/30 00:01:14;;;;;;;11.57;10.35;;;;;;;;;;5096228;28;20315;-85
2023/01/30 00:03:41;;;;;;;12.52;9.65;;;;;;;;;;5096586;28;20235;-86
2023/01/30 00:06:09;;;;;;;11.32;9.45;;;;;;;;;;5096535;28;20250;-87
2023/01/30 00:08:38;;;;;;;11.80;8.60;;;;;;;;;;5096667;28;20283;-86
2023/01/30 00:11:07;;;;;;;10.52;9.05;;;;;;;;;;5097263;28;20725;-86
2023/01/30 00:13:35;;;;;;;12.80;11.05;;;;;;;;;;5097158;28;20752;-87
2023/01/30 00:16:03;;;;;;;10.68;9.38;;;;;;;;;;5097615;28;20293;-86
2023/01/30 00:18:31;;;;;;;12.63;9.60;;;;;;;;;;5095951;28;20255;-86
2023/01/30 00:21:00;;;;;;;12.02;9.93;;;;;;;;;;5095871;28;20259;-86
2023/01/30 00:23:29;;;;;;;10.77;9.60;;;;;;;;;;5095878;28;20230;-84
2023/01/30 00:25:58;;;;;;;11.60;8.73;;;;;;;;;;5095983;28;20244;-87
2023/01/30 00:28:25;;;;;;;12.93;9.80;;;;;;;;;;5095728;28;20326;-86
2023/01/30 00:30:55;;;;;;;10.40;8.30;;;;;;;;;;5096097;28;20227;-87
2023/01/30 00:33:24;;;;;;;10.25;9.02;;;;;;;;;;5096445;28;20200;-87
2023/01/30 00:35:54;;;;;;;11.15;9.23;;;;;;;;;;5096405;28;20262;-86
2023/01/30 00:38:22;;;;;;;10.07;8.93;;;;;;;;;;5095592;28;20192;-86
2023/01/30 00:40:50;;;;;;;9.65;8.63;;;;;;;;;;5095620;28;20250;-87
2023/01/30 00:49:09;;;;;;;13.10;9.68;;;;;;;;;;5011603;28;20286;-86
2023/01/30 00:51:37;;;;;;;16.02;9.82;;;;;;;;;;5075048;28;20474;-86
2023/01/30 00:54:04;;;;;;;11.40;8.95;;;;;;;;;;5095468;28;20227;-86
2023/01/30 00:56:32;;;;;;;10.50;8.75;;;;;;;;;;5095349;28;20211;-85
2023/01/30 00:59:01;;;;;;;11.82;8.68;;;;;;;;;;5094545;28;20207;-87
2023/01/30 01:01:29;;;;;;;10.93;9.00;;;;;;;;;;5094708;28;20304;-86
2023/01/30 01:03:56;;;;;;;14.23;10.63;;;;;;;;;;5095006;28;20288;-85
2023/01/30 01:06:24;;;;;;;12.30;9.27;;;;;;;;;;5093436;28;20231;-85
2023/01/30 01:08:51;;;;;;;13.38;9.95;;;;;;;;;;5094985;28;20228;-87
2023/01/30 01:11:24;;;;;;;10.50;8.13;;;;;;;;;;5095629;28;20247;-87
2023/01/30 01:13:53;;;;;;;12.93;9.57;;;;;;;;;;5094658;28;20196;-86
2023/01/30 01:16:23;;;;;;;10.43;8.75;;;;;;;;;;5095139;28;20249;-87
2023/01/30 01:18:51;;;;;;;10.10;8.32;;;;;;;;;;5094522;28;20223;-86
2023/01/30 01:21:19;;;;;;;11.55;9.60;;;;;;;;;;5095001;28;20701;-86
2023/01/30 01:23:51;;;;;;;14.40;8.80;;;;;;;;;;5094342;28;20260;-86
2023/01/30 01:26:19;;;;;;;10.93;8.07;;;;;;;;;;5095041;28;20195;-87
2023/01/30 01:28:46;;;;;;;11.05;9.82;;;;;;;;;;5082457;28;20232;-86
2023/01/30 01:31:16;;;;;;;9.75;8.65;;;;;;;;;;5073596;28;20237;-87
2023/01/30 01:33:45;;;;;;;10.50;8.38;;;;;;;;;;5073824;28;20251;-87
2023/01/30 01:36:13;;;;;;;9.10;8.15;;;;;;;;;;5073859;28;20264;-87
2023/01/30 01:38:42;;;;;;;11.95;9.57;;;;;;;;;;5073507;28;20228;-87
2023/01/30 01:41:10;;;;;;;10.48;8.93;;;;;;;;;;5073923;28;20619;-87
2023/01/30 01:43:54;;;;;;;14.00;10.45;;;;;;;;;;5073551;28;20239;-88
2023/01/30 01:46:25;;;;;;;11.05;8.02;;;;;;;;;;5073956;28;20243;-86
2023/01/30 01:48:58;;;;;;;8.43;7.55;;;;;;;;;;5071896;28;20224;-86
2023/01/30 01:51:31;;;;;;;10.13;7.38;;;;;;;;;;5073790;28;20655;-86
2023/01/30 01:54:03;;;;;;;12.38;8.88;;;;;;;;;;5073549;28;20217;-87
2023/01/30 01:56:32;;;;;;;9.77;7.97;;;;;;;;;;5073463;28;20284;-86
2023/01/30 01:59:03;;;;;;;11.55;9.00;;;;;;;;;;5073022;28;20296;-87
2023/01/30 02:01:32;;;;;;;12.43;9.98;;;;;;;;;;5073866;28;20259;-87
2023/01/30 02:04:07;;;;;;;9.93;7.75;;;;;;;;;;5073235;28;20239;-86
2023/01/30 02:06:36;;;;;;;10.48;8.70;;;;;;;;;;5073096;28;20201;-87
2023/01/30 02:09:07;;;;;;;9.65;8.10;;;;;;;;;;5073675;28;20722;-87
2023/01/30 02:11:41;;;;;;;13.43;9.98;;;;;;;;;;5073315;28;20223;-87
2023/01/30 02:14:09;;;;;;;9.23;7.43;;;;;;;;;;5073856;28;20212;-86
2023/01/30 02:16:37;;;;;;;11.38;9.07;;;;;;;;;;5073384;28;20606;-87
2023/01/30 02:19:11;;;;;;;9.60;8.07;;;;;;;;;;5072782;28;20620;-87
2023/01/30 02:22:08;;;;;;;11.73;8.23;;;;;;;;;;5073138;28;20254;-86
2023/01/30 02:25:11;;;;;;;10.35;8.77;;;;;;;;;;5073779;28;20288;-87
2023/01/30 02:28:03;;;;;;;9.05;7.32;;;;;;;;;;5065211;28;20204;-86
2023/01/30 02:31:22;;;;;;;12.52;9.48;;;;;;;;;;5094109;28;20188;-86
2023/01/30 02:34:05;;;;;;;13.38;10.20;;;;;;;;;;5094003;28;20216;-87
2023/01/30 02:36:45;;;;;;;9.63;8.35;;;;;;;;;;5094076;28;20275;-86
2023/01/30 02:39:22;;;;;;;13.45;9.85;;;;;;;;;;5092550;28;20879;-86
2023/01/30 02:41:57;;;;;;;12.07;9.68;;;;;;;;;;5094011;28;20236;-86
2023/01/30 02:44:30;;;;;;;10.95;8.30;;;;;;;;;;5094113;28;20258;-87
2023/01/30 02:47:06;;;;;;;12.10;8.90;;;;;;;;;;5094027;28;20237;-87
2023/01/30 02:49:38;;;;;;;11.63;8.77;;;;;;;;;;5093407;28;20203;-87
2023/01/30 02:52:07;;;;;;;13.18;9.70;;;;;;;;;;5093418;28;20224;-87
2023/01/30 02:54:35;;;;;;;9.77;7.75;;;;;;;;;;5093071;28;20342;-87
2023/01/30 02:57:02;;;;;;;9.43;7.60;;;;;;;;;;5093697;28;20235;-87
2023/01/30 02:59:35;;;;;;;9.85;7.35;;;;;;;;;;5093308;28;20255;-88
2023/01/30 03:02:24;;;;;;;11.75;8.52;;;;;;;;;;5093429;28;20315;-86
2023/01/30 03:05:25;;;;;;;11.73;8.00;;;;;;;;;;5093396;28;20257;-86
2023/01/30 03:08:04;;;;;;;10.38;6.40;;;;;;;;;;5093639;28;20286;-85
2023/01/30 03:10:39;;;;;;;7.97;6.55;;;;;;;;;;5093950;28;20615;-87
2023/01/30 03:13:15;;;;;;;9.10;7.95;;;;;;;;;;5091471;28;20226;-87
2023/01/30 03:15:46;;;;;;;10.43;7.55;;;;;;;;;;5093222;28;20222;-86
2023/01/30 03:18:16;;;;;;;8.70;6.38;;;;;;;;;;5092533;28;20203;-86
2023/01/30 03:20:43;;;;;;;8.98;7.18;;;;;;;;;;5092464;28;20739;-88
2023/01/30 03:23:12;;;;;;;6.45;5.80;;;;;;;;;;5091393;28;20224;-87
2023/01/30 03:25:43;;;;;;;7.07;6.38;;;;;;;;;;5092546;28;20224;-87
2023/01/30 03:28:11;;;;;;;7.75;5.65;;;;;;;;;;5092556;28;20287;-86
2023/01/30 03:30:39;;;;;;;7.25;6.53;;;;;;;;;;5095790;28;20605;-86
2023/01/30 03:33:07;;;;;;;6.10;5.50;;;;;;;;;;5095785;28;20236;-86
2023/01/30 03:35:35;;;;;;;5.70;4.60;;;;;;;;;;5096539;28;20227;-86
2023/01/30 03:38:03;;;;;;;7.38;6.50;;;;;;;;;;5095828;28;20235;-86
2023/01/30 03:40:31;;;;;;;7.03;6.32;;;;;;;;;;5095431;28;20202;-88
2023/01/30 03:42:58;;;;;;;6.95;6.15;;;;;;;;;;5095874;28;20772;-87
2023/01/30 03:45:26;;;;;;;8.10;5.68;;;;;;;;;;5096110;28;20299;-87
2023/01/30 03:47:53;;;;;;;7.10;5.60;;;;;;;;;;5095751;28;20225;-86
2023/01/30 03:50:21;;;;;;;6.10;4.90;;;;;;;;;;5095483;28;20238;-86
2023/01/30 03:52:50;;;;;;;5.15;4.53;;;;;;;;;;5095728;28;20224;-87
2023/01/30 03:55:17;;;;;;;6.18;5.15;;;;;;;;;;5095678;28;20274;-87
2023/01/30 03:57:45;;;;;;;5.88;5.30;;;;;;;;;;5092458;28;20240;-86
2023/01/30 04:00:14;;;;;;;5.15;4.47;;;;;;;;;;5074313;28;20243;-87
2023/01/30 04:02:42;;;;;;;4.97;4.22;;;;;;;;;;5075169;28;20260;-86
2023/01/30 04:05:09;;;;;;;5.93;5.40;;;;;;;;;;5075706;28;20296;-87
2023/01/30 04:07:37;;;;;;;5.75;4.32;;;;;;;;;;5074484;28;20284;-87
2023/01/30 04:10:07;;;;;;;5.05;4.32;;;;;;;;;;5074738;28;20196;-88
2023/01/30 04:12:35;;;;;;;5.57;4.65;;;;;;;;;;5074683;28;20264;-87
2023/01/30 04:15:02;;;;;;;6.65;5.95;;;;;;;;;;5074767;28;20308;-87
2023/01/30 04:17:30;;;;;;;5.53;5.03;;;;;;;;;;5074859;28;20197;-87
2023/01/30 04:19:57;;;;;;;4.97;4.50;;;;;;;;;;5074120;28;20355;-88
2023/01/30 04:22:25;;;;;;;5.57;4.65;;;;;;;;;;5073780;28;20711;-87
2023/01/30 04:24:52;;;;;;;5.80;4.45;;;;;;;;;;5074991;28;20315;-86
2023/01/30 04:27:21;;;;;;;5.20;4.25;;;;;;;;;;5074514;28;20666;-87
2023/01/30 04:29:49;;;;;;;6.38;4.72;;;;;;;;;;5094338;28;20287;-87
2023/01/30 04:32:16;;;;;;;6.00;4.53;;;;;;;;;;5094973;28;20665;-88
2023/01/30 04:34:44;;;;;;;6.72;5.18;;;;;;;;;;5094482;28;20247;-87
2023/01/30 04:37:11;;;;;;;5.40;4.30;;;;;;;;;;5094902;28;20214;-87
2023/01/30 04:39:39;;;;;;;4.32;3.70;;;;;;;;;;5093958;28;20273;-86
2023/01/30 04:42:06;;;;;;;6.35;4.78;;;;;;;;;;5092526;28;20291;-87
2023/01/30 04:44:35;;;;;;;4.50;3.65;;;;;;;;;;5093139;28;20312;-87
2023/01/30 04:47:03;;;;;;;4.47;3.97;;;;;;;;;;5094181;28;20691;-87
2023/01/30 04:49:30;;;;;;;4.82;3.83;;;;;;;;;;5093678;28;20292;-87
2023/01/30 04:51:58;;;;;;;3.72;3.25;;;;;;;;;;5094126;28;20657;-87
2023/01/30 04:54:25;;;;;;;3.25;2.95;;;;;;;;;;5094015;28;20243;-87
2023/01/30 04:56:53;;;;;;;5.10;3.97;;;;;;;;;;5094343;28;20673;-85
2023/01/30 04:59:20;;;;;;;3.63;3.20;;;;;;;;;;5093918;28;20850;-87
2023/01/30 05:01:49;;;;;;;4.38;3.97;;;;;;;;;;5093719;28;20299;-87
2023/01/30 05:04:17;;;;;;;3.85;3.40;;;;;;;;;;5093404;28;20244;-87
2023/01/30 05:06:44;;;;;;;6.60;4.85;;;;;;;;;;5092815;28;20224;-88
2023/01/30 05:09:12;;;;;;;3.20;2.90;;;;;;;;;;5091637;28;20287;-87
2023/01/30 05:11:40;;;;;;;3.08;2.80;;;;;;;;;;5093389;28;20223;-87
2023/01/30 05:14:07;;;;;;;3.40;2.38;;;;;;;;;;5093601;28;20762;-87
2023/01/30 05:16:35;;;;;;;2.40;2.15;;;;;;;;;;5081738;28;20741;-87
2023/01/30 05:19:04;;;;;;;2.83;2.60;;;;;;;;;;5078025;28;20224;-87
2023/01/30 05:21:31;;;;;;;2.53;2.28;;;;;;;;;;5073547;28;20244;-87
2023/01/30 05:23:59;;;;;;;2.70;2.50;;;;;;;;;;5071867;28;20272;-86
2023/01/30 05:26:26;;;;;;;2.95;2.58;;;;;;;;;;5071856;28;20612;-84
2023/01/30 05:28:56;;;;;;;2.40;2.20;;;;;;;;;;5083222;28;20584;-85
2023/01/30 05:31:24;;;;;;;2.63;2.38;;;;;;;;;;5091512;28;20276;-87
2023/01/30 05:33:52;;;;;;;2.25;2.05;;;;;;;;;;5091553;28;20212;-87
2023/01/30 05:36:23;;;;;;;1.88;1.77;;;;;;;;;;5092323;28;20261;-86
2023/01/30 05:38:51;;;;;;;2.67;2.10;;;;;;;;;;5092722;28;20594;-87
2023/01/30 05:41:18;;;;;;;2.58;1.90;;;;;;;;;;5093710;28;20188;-86
2023/01/30 05:43:50;;;;;;;1.75;1.65;;;;;;;;;;5092788;28;20263;-86
2023/01/30 05:46:17;;;;;;;1.52;1.42;;;;;;;;;;5092849;28;20207;-87
2023/01/30 05:48:45;;;;;;;1.55;1.45;;;;;;;;;;5092912;28;20232;-87
2023/01/30 05:51:18;;;;;;;1.60;1.50;;;;;;;;;;5093385;28;20291;-86
2023/01/30 05:53:48;;;;;;;1.60;1.50;;;;;;;;;;5093397;28;20795;-87
2023/01/30 05:56:16;;;;;;;2.28;2.08;;;;;;;;;;5092812;28;20619;-87
2023/01/30 05:58:44;;;;;;;1.27;1.17;;;;;;;;;;5092169;28;20685;-86
2023/01/30 06:01:13;;;;;;;1.50;1.40;;;;;;;;;;5093332;28;20625;-86
2023/01/30 06:03:41;;;;;;;1.08;1.08;;;;;;;;;;5092972;28;20239;-87
2023/01/30 06:06:11;;;;;;;1.40;1.30;;;;;;;;;;5092828;28;20204;-85
2023/01/30 06:08:39;;;;;;;1.35;1.30;;;;;;;;;;5092628;28;20185;-86
2023/01/30 06:11:10;;;;;;;1.05;1.05;;;;;;;;;;5092719;28;20231;-86
2023/01/30 06:13:38;;;;;;;1.20;1.10;;;;;;;;;;5092798;28;20177;-88
2023/01/30 06:16:08;;;;;;;1.50;1.40;;;;;;;;;;5093190;28;20273;-86
2023/01/30 06:18:36;;;;;;;1.48;1.38;;;;;;;;;;5092804;28;20726;-88
2023/01/30 06:21:03;;;;;;;1.73;1.58;;;;;;;;;;5092712;28;20231;-88
2023/01/30 06:23:31;;;;;;;1.20;1.20;;;;;;;;;;5092814;28;20673;-85
2023/01/30 06:25:59;;;;;;;1.08;1.08;;;;;;;;;;5092580;28;20233;-87
2023/01/30 06:28:28;;;;;;;1.40;1.30;;;;;;;;;;5092585;28;20780;-87
2023/01/30 06:30:56;;;;;;;0.95;0.95;;;;;;;;;;5092996;28;20207;-87
2023/01/30 06:33:23;;;;;;;0.90;0.90;;;;;;;;;;5092241;28;20726;-87
2023/01/30 06:35:52;;;;;;;0.90;0.90;;;;;;;;;;5092747;28;20231;-86
2023/01/30 06:38:20;;;;;;;1.20;1.10;;;;;;;;;;5092593;28;20292;-87
2023/01/30 06:40:49;;;;;;;1.10;1.10;;;;;;;;;;5092967;28;20741;-87
2023/01/30 06:43:17;;;;;;;1.00;1.00;;;;;;;;;;5092354;28;20719;-87
2023/01/30 06:45:46;;;;;;;1.83;1.73;;;;;;;;;;5092075;28;20776;-87
2023/01/30 06:48:14;;;;;;;0.90;0.90;;;;;;;;;;5092728;28;20717;-87
2023/01/30 06:50:41;;;;;;;1.48;1.38;;;;;;;;;;5092782;28;20287;-84
2023/01/30 06:53:10;;;;;;;1.25;1.15;;;;;;;;;;5093360;28;20238;-87
2023/01/30 06:55:38;;;;;;;1.13;1.13;;;;;;;;;;5092714;28;20273;-86
2023/01/30 06:58:07;;;;;;;3.70;2.10;;;;;;;;;;5092309;28;20311;-87
2023/01/30 07:00:38;;;;;;;2.53;1.77;;;;;;;;;;5092508;28;20287;-87
2023/01/30 07:03:10;;;;;;;0.98;0.98;;;;;;;;;;5094687;28;20192;-86
2023/01/30 07:05:38;;;;;;;0.90;0.90;;;;;;;;;;5097250;28;20606;-87
2023/01/30 07:08:06;;;;;;;1.55;1.45;;;;;;;;;;5096997;28;20253;-87
2023/01/30 07:10:34;;;;;;;1.20;1.17;;;;;;;;;;5097928;28;20258;-86
2023/01/30 07:13:02;;;;;;;1.27;1.23;;;;;;;;;;5096620;28;20206;-87
2023/01/30 07:15:30;;;;;;;1.23;1.13;;;;;;;;;;5097427;28;20227;-86
2023/01/30 07:17:57;;;;;;;1.00;1.00;;;;;;;;;;5097372;28;20666;-87
2023/01/30 07:20:28;;;;;;;1.00;1.00;;;;;;;;;;5096631;28;20196;-87
2023/01/30 07:22:57;;;;;;;1.00;1.00;;;;;;;;;;5097614;28;20200;-87
2023/01/30 07:25:26;;;;;;;1.08;1.08;;;;;;;;;;5096529;28;20228;-87
2023/01/30 07:27:57;;;;;;;1.40;1.30;;;;;;;;;;5096050;28;20287;-87
2023/01/30 07:30:25;;;;;;;0.90;0.90;;;;;;;;;;5096903;28;20181;-86
2023/01/30 07:32:53;;;;;;;1.38;1.27;;;;;;;;;;5095732;28;20290;-87
2023/01/30 07:35:21;;;;;;;1.30;1.00;;;;;;;;;;5095893;28;20224;-87
2023/01/30 07:37:50;;;;;;;1.40;1.30;;;;;;;;;;5096210;28;20208;-87
2023/01/30 07:40:21;;;;;;;0.80;0.80;;;;;;;;;;5095571;28;20284;-86
2023/01/30 07:42:57;;;;;;;0.80;0.80;;;;;;;;;;5095823;28;20343;-87
2023/01/30 07:45:25;;;;;;;0.82;0.82;;;;;;;;;;5096423;28;20691;-87
2023/01/30 07:47:53;;;;;;;1.27;1.17;;;;;;;;;;5096585;28;20594;-87
2023/01/30 07:50:21;;;;;;;0.90;0.90;;;;;;;;;;5096201;28;20208;-86
2023/01/30 07:52:50;;;;;;;1.25;1.25;;;;;;;;;;5096950;28;20230;-87
2023/01/30 07:55:17;;;;;;;1.10;1.00;;;;;;;;;;5096601;28;20242;-86
2023/01/30 07:57:45;;;;;;;0.88;0.88;;;;;;;;;;5097383;28;20244;-87
2023/01/30 08:00:14;;;;;;;1.30;1.20;;;;;;;;;;5096114;28;20287;-87
2023/01/30 08:02:42;;;;;;;1.00;1.00;;;;;;;;;;5095864;28;20193;-87
2023/01/30 08:05:10;;;;;;;1.00;1.00;;;;;;;;;;5095072;28;20319;-87
2023/01/30 08:07:37;;;;;;;1.08;1.05;;;;;;;;;;5095147;28;20197;-87
2023/01/30 08:10:08;;;;;;;1.23;1.10;;;;;;;;;;5095788;28;20261;-87
2023/01/30 08:12:36;;;;;;;1.42;1.20;;;;;;;;;;5095729;28;20227;-87
2023/01/30 08:15:04;;;;;;;1.27;1.25;;;;;;;;;;5094938;28;20649;-86
2023/01/30 08:17:31;;;;;;;1.00;1.00;;;;;;;;;;5095680;28;20232;-88
2023/01/30 08:19:59;;;;;;;2.00;1.00;;;;;;;;;;5095345;28;20285;-87
2023/01/30 08:22:26;;;;;;;1.48;1.38;;;;;;;;;;5095419;28;20639;-87
2023/01/30 08:24:54;;;;;;;2.20;1.98;;;;;;;;;;5094994;28;20244;-87
2023/01/30 08:27:23;;;;;;;1.50;1.40;;;;;;;;;;5095054;28;20192;-86
2023/01/30 08:29:50;;;;;;;1.17;1.10;;;;;;;;;;5094739;28;20238;-88
2023/01/30 08:32:18;;;;;;;1.20;1.20;;;;;;;;;;5095313;28;20542;-86
2023/01/30 08:34:56;;;;;;;1.42;1.33;;;;;;;;;;5107784;22;20490;-94
2023/01/30 08:37:30;;;;;;;2.45;2.25;;;;;;;;;;5094754;28;20196;-93
2023/01/30 08:40:21;;;;;;;2.67;2.22;;;;;;;;;;5069915;28;20610;-92
2023/01/30 08:42:50;;;;;;;3.45;1.92;;;;;;;;;;5058614;28;20229;-92
2023/01/30 08:45:18;;;;;;;3.72;1.70;;;;;;;;;;5054754;28;20226;-91
2023/01/30 08:47:46;;;;;;;1.45;1.35;;;;;;;;;;5053666;28;20264;-90
2023/01/30 08:50:13;;;;;;;1.75;1.20;;;;;;;;;;5052878;28;20745;-90
2023/01/30 08:52:41;;;;;;;0.88;0.80;;;;;;;;;;5053560;28;20705;-91
2023/01/30 08:55:09;;;;;;;1.50;1.40;;;;;;;;;;5053941;28;20292;-90
2023/01/30 08:57:37;;;;;;;1.00;0.90;;;;;;;;;;5053636;28;20198;-92
2023/01/30 09:00:08;;;;;;;1.45;0.80;;;;;;;;;;5048786;28;20191;-92
2023/01/30 09:02:36;;;;;;;0.75;0.75;;;;;;;;;;5033683;28;20198;-92
2023/01/30 09:05:04;;;;;;;1.48;0.60;;;;;;;;;;5033767;28;20195;-91
2023/01/30 09:07:32;;;;;;;0.88;0.60;;;;;;;;;;5032051;28;20233;-91
2023/01/30 09:10:00;;;;;;;0.47;0.47;;;;;;;;;;5032282;28;20285;-91
2023/01/30 09:12:28;;;;;;;0.88;0.50;;;;;;;;;;5033082;28;20222;-89
2023/01/30 09:14:57;;;;;;;0.80;0.70;;;;;;;;;;5033140;28;20290;-92
2023/01/30 09:17:26;;;;;;;0.93;0.82;;;;;;;;;;5033574;28;20209;-92
2023/01/30 09:19:53;;;;;;;0.90;0.70;;;;;;;;;;5032588;28;20278;-92
2023/01/30 09:22:22;;;;;;;0.90;0.90;;;;;;;;;;5038868;28;20290;-91
2023/01/30 09:24:50;;;;;;;0.93;0.90;;;;;;;;;;5035725;28;20249;-91
2023/01/30 09:27:18;;;;;;;1.40;1.30;;;;;;;;;;5032469;28;20230;-92
2023/01/30 09:29:45;;;;;;;1.30;1.10;;;;;;;;;;5052608;28;20253;-92
2023/01/30 09:32:13;;;;;;;1.00;1.00;;;;;;;;;;5052580;28;20240;-92
2023/01/30 09:34:42;;;;;;;1.92;1.60;;;;;;;;;;5053743;28;20225;-91
2023/01/30 09:37:10;;;;;;;1.60;1.50;;;;;;;;;;5053065;28;20201;-91
2023/01/30 09:39:38;;;;;;;2.10;1.80;;;;;;;;;;5053152;28;20717;-91
2023/01/30 09:42:33;;;;;;;2.72;1.77;;;;;;;;;;5053439;28;20289;-92
2023/01/30 09:45:23;;;;;;;1.90;1.33;;;;;;;;;;5053530;28;20205;-92
2023/01/30 09:47:57;;;;;;;3.08;2.00;;;;;;;;;;5052865;28;20225;-91
2023/01/30 09:50:45;;;;;;;3.70;1.92;;;;;;;;;;5052835;28;20283;-91
2023/01/30 09:53:18;;;;;;;2.22;1.90;;;;;;;;;;5054012;28;20808;-91
2023/01/30 09:55:47;;;;;;;2.30;2.10;;;;;;;;;;5054057;28;20256;-91
2023/01/30 09:58:18;;;;;;;4.40;1.70;;;;;;;;;;5053111;28;20260;-91
2023/01/30 10:00:47;;;;;;;2.80;2.03;;;;;;;;;;5053332;28;20281;-90
2023/01/30 10:03:17;;;;;;;4.68;2.60;;;;;;;;;;5052088;28;20217;-89
2023/01/30 10:05:49;;;;;;;4.15;2.33;;;;;;;;;;5051645;28;20209;-91
2023/01/30 10:08:46;;;;;;;2.80;1.75;;;;;;;;;;5051558;28;20313;-90
2023/01/30 10:11:25;;;;;;;2.00;1.90;;;;;;;;;;5052489;28;20641;-90
2023/01/30 10:14:17;;;;;;;5.28;1.90;;;;;;;;;;5052124;28;20719;-92
2023/01/30 10:16:53;;;;;;;2.30;2.08;;;;;;;;;;5051934;28;20233;-91
2023/01/30 10:19:49;;;;;;;5.45;2.10;;;;;;;;;;5052350;28;20271;-91
2023/01/30 10:22:31;;;;;;;6.10;2.30;;;;;;;;;;5046204;28;20666;-91
2023/01/30 10:25:11;;;;;;;4.13;2.65;;;;;;;;;;5052665;28;20221;-91
2023/01/30 10:27:50;;;;;;;4.45;2.17;;;;;;;;;;5052863;28;20313;-91
2023/01/30 10:30:19;;;;;;;5.70;2.28;;;;;;;;;;5053311;28;20209;-93
2023/01/30 10:32:51;;;;;;;5.65;3.38;;;;;;;;;;5053157;28;20210;-92
2023/01/30 10:35:25;;;;;;;7.38;2.72;;;;;;;;;;5054200;28;20209;-91
2023/01/30 10:38:03;;;;;;;4.70;2.45;;;;;;;;;;5054041;28;20306;-92
2023/01/30 10:40:36;;;;;;;6.25;2.58;;;;;;;;;;5058640;28;20204;-92
2023/01/30 10:43:19;;;;;;;4.22;2.42;;;;;;;;;;5058982;28;20713;-92
2023/01/30 10:45:54;;;;;;;4.47;1.67;;;;;;;;;;5063742;28;20228;-92
2023/01/30 10:48:47;;;;;;;3.08;1.67;;;;;;;;;;5062945;28;20256;-92
2023/01/30 10:51:26;;;;;;;8.27;2.92;;;;;;;;;;5062500;28;20232;-92
2023/01/30 10:54:04;;;;;;;7.30;2.95;;;;;;;;;;5061864;28;20239;-91
2023/01/30 10:56:40;;;;;;;3.90;2.35;;;;;;;;;;5061377;28;20262;-92
2023/01/30 10:59:22;;;;;;;4.93;2.97;;;;;;;;;;5058079;28;20315;-92
2023/01/30 11:01:59;;;;;;;3.75;2.20;;;;;;;;;;5056909;28;20205;-91
2023/01/30 11:04:33;;;;;;;4.00;2.30;;;;;;;;;;5056274;28;20233;-91
2023/01/30 11:07:02;;;;;;;3.60;2.60;;;;;;;;;;5055309;28;20221;-91
2023/01/30 11:09:43;;;;;;;7.50;3.22;;;;;;;;;;5055362;28;20723;-91
2023/01/30 11:12:11;;;;;;;8.98;3.13;;;;;;;;;;5055544;28;20662;-92
2023/01/30 11:14:55;;;;;;;9.98;3.28;;;;;;;;;;5055539;28;20205;-91
2023/01/30 11:17:33;;;;;;;6.38;2.55;;;;;;;;;;5055928;28;20289;-92
2023/01/30 11:20:07;;;;;;;10.32;3.53;;;;;;;;;;5055487;28;20587;-91
2023/01/30 11:22:41;;;;;;;7.53;2.80;;;;;;;;;;5055151;28;20677;-92
2023/01/30 11:25:17;;;;;;;6.45;3.25;;;;;;;;;;5056510;28;20206;-91
2023/01/30 11:27:54;;;;;;;5.75;3.60;;;;;;;;;;5055365;28;20253;-91
2023/01/30 11:30:27;;;;;;;5.45;2.92;;;;;;;;;;5055218;28;20238;-91
2023/01/30 11:33:08;;;;;;;4.30;2.60;;;;;;;;;;5056365;28;20229;-93
2023/01/30 11:35:43;;;;;;;7.90;3.95;;;;;;;;;;5056478;28;20271;-90
2023/01/30 11:38:25;;;;;;;13.98;3.88;;;;;;;;;;5056705;28;20228;-91
2023/01/30 11:41:13;;;;;;;3.25;2.65;;;;;;;;;;5060182;28;20205;-93
2023/01/30 11:43:41;;;;;;;4.38;2.35;;;;;;;;;;5057432;28;20289;-91
2023/01/30 11:46:11;;;;;;;7.82;3.33;;;;;;;;;;5058348;28;20201;-91
2023/01/30 11:48:45;;;;;;;5.22;2.67;;;;;;;;;;5056591;28;20249;-91
2023/01/30 11:51:19;;;;;;;6.53;2.90;;;;;;;;;;5056809;28;20215;-92
2023/01/30 11:53:50;;;;;;;5.15;2.58;;;;;;;;;;5058567;28;20206;-92
2023/01/30 11:56:24;;;;;;;10.35;3.47;;;;;;;;;;5056220;28;20614;-91
2023/01/30 11:58:59;;;;;;;4.25;2.30;;;;;;;;;;5056091;28;20321;-91
2023/01/30 12:01:35;;;;;;;10.90;4.35;;;;;;;;;;5055524;28;20661;-92
2023/01/30 12:04:10;;;;;;;5.97;2.60;;;;;;;;;;5055033;28;20561;-91
2023/01/30 12:06:45;;;;;;;6.05;3.05;;;;;;;;;;5054164;28;20688;-91
2023/01/30 12:09:40;;;;;;;5.60;2.70;;;;;;;;;;5053923;28;20225;-90
2023/01/30 12:12:51;;;;;;;6.63;2.30;;;;;;;;;;5054377;28;20211;-91
2023/01/30 12:15:34;;;;;;;2.70;1.70;;;;;;;;;;5064940;28;20217;-93
2023/01/30 12:18:29;;;;;;;5.65;2.08;;;;;;;;;;5067776;28;20260;-92
2023/01/30 12:21:17;;;;;;;2.88;2.38;;;;;;;;;;5064092;28;20266;-93
2023/01/30 12:23:53;;;;;;;10.18;3.00;;;;;;;;;;5066722;28;20257;-92
2023/01/30 12:26:43;;;;;;;2.80;1.45;;;;;;;;;;5068186;28;20204;-94
2023/01/30 12:29:43;;;;;;;5.43;2.88;;;;;;;;;;5065408;28;20677;-92
2023/01/30 12:32:32;;;;;;;4.68;2.00;;;;;;;;;;5068043;28;20670;-94
2023/01/30 12:35:21;;;;;;;5.60;2.42;;;;;;;;;;5064643;28;20213;-93
2023/01/30 12:41:41;;;;;;;7.13;3.35;;;;;;;;;;5063335;28;20197;-93
2023/01/30 12:48:53;;;;;;;2.20;1.60;;;;;;;;;;5057152;28;20717;-93
2023/01/30 12:52:13;;;;;;;7.25;3.38;;;;;;;;;;5049867;28;20213;-93
2023/01/30 12:54:59;;;;;;;7.75;2.33;;;;;;;;;;5062781;28;20210;-93
2023/01/30 12:58:03;;;;;;;3.40;1.95;;;;;;;;;;5058872;28;20216;-93
2023/01/30 13:00:58;;;;;;;9.48;4.25;;;;;;;;;;5058489;28;20211;-92
2023/01/30 13:03:46;;;;;;;2.65;2.30;;;;;;;;;;5069109;28;20193;-92
2023/01/30 13:06:34;;;;;;;6.78;2.10;;;;;;;;;;5078295;28;20189;-94
2023/01/30 13:09:36;;;;;;;7.38;3.10;;;;;;;;;;5087822;22;20236;-88
2023/01/30 13:12:10;;;;;;;6.50;2.28;;;;;;;;;;5073828;28;20205;-88
2023/01/30 13:14:43;;;;;;;5.07;2.65;;;;;;;;;;5073506;28;20249;-88
2023/01/30 13:17:32;;;;;;;7.00;2.40;;;;;;;;;;5073436;28;20272;-88
2023/01/30 13:20:05;;;;;;;4.03;3.30;;;;;;;;;;5073604;28;20288;-88
2023/01/30 13:22:39;;;;;;;7.35;3.08;;;;;;;;;;5073491;28;20679;-88
2023/01/30 13:25:19;;;;;;;13.65;3.28;;;;;;;;;;5073857;28;20296;-86
2023/01/30 13:27:54;;;;;;;8.65;2.40;;;;;;;;;;5073800;28;20275;-87
2023/01/30 13:30:24;;;;;;;10.95;3.05;;;;;;;;;;5073786;28;20618;-87
2023/01/30 13:32:57;;;;;;;10.45;3.78;;;;;;;;;;5073600;28;20579;-88
2023/01/30 13:35:29;;;;;;;9.57;2.67;;;;;;;;;;5073385;28;20292;-88
2023/01/30 13:37:59;;;;;;;8.80;3.80;;;;;;;;;;5073593;28;20663;-86
2023/01/30 13:40:31;;;;;;;6.93;2.83;;;;;;;;;;5073437;28;20197;-88
2023/01/30 13:43:02;;;;;;;6.20;2.22;;;;;;;;;;5073355;28;20208;-88
2023/01/30 13:45:32;;;;;;;7.25;2.15;;;;;;;;;;5072976;28;20312;-87
2023/01/30 13:48:17;;;;;;;4.57;2.40;;;;;;;;;;5073229;28;20272;-88
2023/01/30 13:50:57;;;;;;;6.18;2.20;;;;;;;;;;5073120;28;20725;-89
2023/01/30 13:53:32;;;;;;;6.07;2.50;;;;;;;;;;5073126;28;20275;-88
2023/01/30 13:56:05;;;;;;;4.97;2.10;;;;;;;;;;5072919;28;20236;-87
2023/01/30 13:58:42;;;;;;;12.57;3.28;;;;;;;;;;5073489;28;20264;-88
2023/01/30 14:01:11;;;;;;;8.13;3.03;;;;;;;;;;5073351;28;20220;-87
2023/01/30 14:03:40;;;;;;;5.68;2.60;;;;;;;;;;5073151;28;20196;-87
2023/01/30 14:06:47;;;;;;;9.90;3.60;;;;;;;;;;5073000;28;20692;-86
2023/01/30 14:09:23;;;;;;;9.18;3.03;;;;;;;;;;5071075;28;20330;-88
2023/01/30 14:11:58;;;;;;;8.98;2.78;;;;;;;;;;5073475;28;20599;-87
2023/01/30 14:14:31;;;;;;;7.25;2.47;;;;;;;;;;5072212;28;20280;-87
2023/01/30 14:17:14;;;;;;;4.03;2.20;;;;;;;;;;5072748;28;20265;-88
2023/01/30 14:19:57;;;;;;;7.15;2.30;;;;;;;;;;5072742;28;20687;-86
2023/01/30 14:22:34;;;;;;;7.32;2.53;;;;;;;;;;5073300;28;20207;-87
2023/01/30 14:25:45;;;;;;;8.48;3.60;;;;;;;;;;5073180;28;20232;-88
2023/01/30 14:28:50;;;;;;;12.32;3.00;;;;;;;;;;5062764;28;20197;-88
2023/01/30 14:31:47;;;;;;;7.75;2.80;;;;;;;;;;5072744;28;20268;-89
2023/01/30 14:34:41;;;;;;;5.22;1.98;;;;;;;;;;5073301;28;20189;-87
2023/01/30 14:37:51;;;;;;;8.05;3.22;;;;;;;;;;5073499;28;20647;-87
2023/01/30 14:40:39;;;;;;;10.77;3.25;;;;;;;;;;5072575;28;20190;-87
2023/01/30 14:43:49;;;;;;;13.10;3.90;;;;;;;;;;5072950;28;20211;-87
2023/01/30 14:46:46;;;;;;;8.02;3.17;;;;;;;;;;5071794;28;20224;-87
2023/01/30 14:49:32;;;;;;;8.05;3.45;;;;;;;;;;5072911;28;20587;-86
2023/01/30 14:52:00;;;;;;;8.32;3.70;;;;;;;;;;5073129;28;20197;-86
2023/01/30 14:54:42;;;;;;;6.18;2.20;;;;;;;;;;5072862;28;20201;-86
2023/01/30 14:57:31;;;;;;;4.93;2.30;;;;;;;;;;5072912;28;20251;-86
2023/01/30 15:00:06;;;;;;;3.08;2.05;;;;;;;;;;5051712;28;20193;-86
2023/01/30 15:02:37;;;;;;;4.75;2.75;;;;;;;;;;5052759;28;20209;-86
2023/01/30 15:05:10;;;;;;;11.02;2.47;;;;;;;;;;5052734;28;20222;-87
2023/01/30 15:07:41;;;;;;;5.10;2.22;;;;;;;;;;5052025;28;20648;-88
2023/01/30 15:10:35;;;;;;;5.43;2.03;;;;;;;;;;5051899;28;20651;-87
2023/01/30 15:13:58;;;;;;;1.50;1.02;;;;;;;;;;5052347;28;20233;-87
2023/01/30 15:16:49;;;;;;;0.95;0.88;;;;;;;;;;4978412;28;20678;-87
2023/01/30 15:19:37;;;;;;;3.63;1.85;;;;;;;;;;5048077;28;20328;-87
2023/01/30 15:22:15;;;;;;;1.38;1.10;;;;;;;;;;5052360;28;20192;-86
2023/01/30 15:25:12;;;;;;;1.63;1.40;;;;;;;;;;5053600;28;20221;-87
2023/01/30 15:28:00;;;;;;;2.70;1.45;;;;;;;;;;5058555;28;20825;-86
2023/01/30 15:30:43;;;;;;;6.15;1.90;;;;;;;;;;5077023;28;20292;-87
2023/01/30 15:33:17;;;;;;;3.53;1.83;;;;;;;;;;5076413;28;20291;-84
2023/01/30 15:35:45;;;;;;;4.40;1.73;;;;;;;;;;5077113;28;20307;-87